sensor_id;sensor_type;location;lat;lon;timestamp;P1;durP1;ratioP1;P2;durP2;ratioP2
9997;SDS011;5038;53.064;8.624;2023-07-16T00:01:42;4.80;;;3.47;;
9997;SDS011;5038;53.064;8.624;2023-07-16T00:04:13;4.97;;;3.50;;
9997;SDS011;5038;53.064;8.624;2023-07-16T00:06:51;4.93;;;3.20;;
9997;SDS011;5038;53.064;8.624;2023-07-16T00:09:29;6.53;;;3.07;;
9997;SDS011;5038;53.064;8.624;2023-07-16T00:12:13;3.33;;;2.87;;
9997;SDS011;5038;53.064;8.624;2023-07-16T00:15:02;3.87;;;3.00;;
9997;SDS011;5038;53.064;8.624;2023-07-16T00:17:40;3.50;;;2.80;;
9997;SDS011;5038;53.064;8.624;2023-07-16T00:20:18;3.73;;;2.90;;
9997;SDS011;5038;53.064;8.624;2023-07-16T00:22:49;3.13;;;2.67;;
9997;SDS011;5038;53.064;8.624;2023-07-16T00:25:19;3.90;;;3.30;;
9997;SDS011;5038;53.064;8.624;2023-07-16T00:27:56;4.13;;;3.23;;
9997;SDS011;5038;53.064;8.624;2023-07-16T00:30:28;3.87;;;3.50;;
9997;SDS011;5038;53.064;8.624;2023-07-16T00:32:59;3.97;;;3.07;;
9997;SDS011;5038;53.064;8.624;2023-07-16T00:35:33;3.30;;;3.00;;
9997;SDS011;5038;53.064;8.624;2023-07-16T00:38:05;7.07;;;3.13;;
9997;SDS011;5038;53.064;8.624;2023-07-16T00:40:40;5.47;;;3.20;;
9997;SDS011;5038;53.064;8.624;2023-07-16T00:43:11;3.93;;;3.17;;
9997;SDS011;5038;53.064;8.624;2023-07-16T00:45:45;3.87;;;3.30;;
9997;SDS011;5038;53.064;8.624;2023-07-16T00:48:15;4.57;;;3.60;;
9997;SDS011;5038;53.064;8.624;2023-07-16T00:50:58;4.80;;;3.70;;
9997;SDS011;5038;53.064;8.624;2023-07-16T00:53:39;6.40;;;3.23;;
9997;SDS011;5038;53.064;8.624;2023-07-16T00:56:18;4.63;;;3.50;;
9997;SDS011;5038;53.064;8.624;2023-07-16T00:59:02;4.07;;;3.30;;
9997;SDS011;5038;53.064;8.624;2023-07-16T01:01:41;3.83;;;3.10;;
9997;SDS011;5038;53.064;8.624;2023-07-16T01:04:15;4.73;;;3.10;;
9997;SDS011;5038;53.064;8.624;2023-07-16T01:06:50;5.43;;;3.20;;
9997;SDS011;5038;53.064;8.624;2023-07-16T01:09:27;4.53;;;3.20;;
9997;SDS011;5038;53.064;8.624;2023-07-16T01:12:11;4.63;;;3.17;;
9997;SDS011;5038;53.064;8.624;2023-07-16T01:14:46;3.93;;;3.17;;
9997;SDS011;5038;53.064;8.624;2023-07-16T01:17:25;5.57;;;3.67;;
9997;SDS011;5038;53.064;8.624;2023-07-16T01:19:58;4.33;;;3.13;;
9997;SDS011;5038;53.064;8.624;2023-07-16T01:22:44;4.40;;;3.43;;
9997;SDS011;5038;53.064;8.624;2023-07-16T01:25:30;3.80;;;3.10;;
9997;SDS011;5038;53.064;8.624;2023-07-16T01:28:24;4.53;;;3.53;;
9997;SDS011;5038;53.064;8.624;2023-07-16T01:31:10;5.20;;;4.30;;
9997;SDS011;5038;53.064;8.624;2023-07-16T01:33:39;8.73;;;3.47;;
9997;SDS011;5038;53.064;8.624;2023-07-16T01:36:12;5.90;;;3.90;;
9997;SDS011;5038;53.064;8.624;2023-07-16T01:38:41;5.43;;;3.30;;
9997;SDS011;5038;53.064;8.624;2023-07-16T01:41:10;8.23;;;4.27;;
9997;SDS011;5038;53.064;8.624;2023-07-16T01:43:38;3.97;;;3.47;;
9997;SDS011;5038;53.064;8.624;2023-07-16T01:46:07;5.37;;;3.60;;
9997;SDS011;5038;53.064;8.624;2023-07-16T01:48:37;6.13;;;4.23;;
9997;SDS011;5038;53.064;8.624;2023-07-16T01:51:05;3.93;;;3.33;;
9997;SDS011;5038;53.064;8.624;2023-07-16T01:53:33;5.93;;;3.23;;
9997;SDS011;5038;53.064;8.624;2023-07-16T01:56:02;6.47;;;3.53;;
9997;SDS011;5038;53.064;8.624;2023-07-16T01:58:31;8.07;;;4.20;;
9997;SDS011;5038;53.064;8.624;2023-07-16T02:00:59;5.60;;;3.60;;
9997;SDS011;5038;53.064;8.624;2023-07-16T02:03:27;5.97;;;3.80;;
9997;SDS011;5038;53.064;8.624;2023-07-16T02:05:57;6.03;;;4.30;;
9997;SDS011;5038;53.064;8.624;2023-07-16T02:08:25;6.83;;;3.50;;
9997;SDS011;5038;53.064;8.624;2023-07-16T02:10:53;6.93;;;4.30;;
9997;SDS011;5038;53.064;8.624;2023-07-16T02:13:22;4.70;;;3.33;;
9997;SDS011;5038;53.064;8.624;2023-07-16T02:15:50;5.70;;;4.00;;
9997;SDS011;5038;53.064;8.624;2023-07-16T02:18:18;4.30;;;3.70;;
9997;SDS011;5038;53.064;8.624;2023-07-16T02:20:46;5.40;;;3.80;;
9997;SDS011;5038;53.064;8.624;2023-07-16T02:23:16;5.37;;;3.53;;
9997;SDS011;5038;53.064;8.624;2023-07-16T02:25:44;5.80;;;3.60;;
9997;SDS011;5038;53.064;8.624;2023-07-16T02:28:15;6.63;;;3.70;;
9997;SDS011;5038;53.064;8.624;2023-07-16T02:30:44;7.83;;;3.80;;
9997;SDS011;5038;53.064;8.624;2023-07-16T02:33:13;6.13;;;4.03;;
9997;SDS011;5038;53.064;8.624;2023-07-16T02:35:41;4.73;;;3.73;;
9997;SDS011;5038;53.064;8.624;2023-07-16T02:38:15;6.17;;;3.93;;
9997;SDS011;5038;53.064;8.624;2023-07-16T02:40:44;4.70;;;3.60;;
9997;SDS011;5038;53.064;8.624;2023-07-16T02:43:12;4.87;;;4.43;;
9997;SDS011;5038;53.064;8.624;2023-07-16T02:45:41;4.17;;;3.73;;
9997;SDS011;5038;53.064;8.624;2023-07-16T02:48:09;5.13;;;3.70;;
9997;SDS011;5038;53.064;8.624;2023-07-16T02:50:37;5.33;;;3.57;;
9997;SDS011;5038;53.064;8.624;2023-07-16T02:53:06;5.93;;;3.80;;
9997;SDS011;5038;53.064;8.624;2023-07-16T02:55:36;4.40;;;3.43;;
9997;SDS011;5038;53.064;8.624;2023-07-16T02:58:04;7.20;;;4.13;;
9997;SDS011;5038;53.064;8.624;2023-07-16T03:00:32;4.37;;;3.93;;
9997;SDS011;5038;53.064;8.624;2023-07-16T03:03:01;6.90;;;4.33;;
9997;SDS011;5038;53.064;8.624;2023-07-16T03:05:30;4.07;;;3.67;;
9997;SDS011;5038;53.064;8.624;2023-07-16T03:07:58;6.43;;;3.73;;
9997;SDS011;5038;53.064;8.624;2023-07-16T03:10:26;5.13;;;4.20;;
9997;SDS011;5038;53.064;8.624;2023-07-16T03:12:56;5.33;;;4.50;;
9997;SDS011;5038;53.064;8.624;2023-07-16T03:15:24;9.40;;;5.10;;
9997;SDS011;5038;53.064;8.624;2023-07-16T03:17:52;4.50;;;4.10;;
9997;SDS011;5038;53.064;8.624;2023-07-16T03:20:20;5.30;;;4.20;;
9997;SDS011;5038;53.064;8.624;2023-07-16T03:22:48;5.70;;;4.40;;
9997;SDS011;5038;53.064;8.624;2023-07-16T03:25:17;5.70;;;4.40;;
9997;SDS011;5038;53.064;8.624;2023-07-16T03:27:45;5.30;;;4.23;;
9997;SDS011;5038;53.064;8.624;2023-07-16T03:30:14;8.23;;;4.37;;
9997;SDS011;5038;53.064;8.624;2023-07-16T03:32:43;6.07;;;4.90;;
9997;SDS011;5038;53.064;8.624;2023-07-16T03:35:20;5.70;;;4.13;;
9997;SDS011;5038;53.064;8.624;2023-07-16T03:37:51;7.00;;;4.90;;
9997;SDS011;5038;53.064;8.624;2023-07-16T03:40:23;6.63;;;4.10;;
9997;SDS011;5038;53.064;8.624;2023-07-16T03:42:52;5.10;;;4.40;;
9997;SDS011;5038;53.064;8.624;2023-07-16T03:45:23;5.57;;;4.63;;
9997;SDS011;5038;53.064;8.624;2023-07-16T03:47:52;7.13;;;4.83;;
9997;SDS011;5038;53.064;8.624;2023-07-16T03:50:21;6.03;;;5.20;;
9997;SDS011;5038;53.064;8.624;2023-07-16T03:52:49;6.90;;;5.10;;
9997;SDS011;5038;53.064;8.624;2023-07-16T03:55:17;5.20;;;4.33;;
9997;SDS011;5038;53.064;8.624;2023-07-16T03:57:46;6.57;;;4.90;;
9997;SDS011;5038;53.064;8.624;2023-07-16T04:00:14;5.40;;;4.60;;
9997;SDS011;5038;53.064;8.624;2023-07-16T04:02:49;7.30;;;4.80;;
9997;SDS011;5038;53.064;8.624;2023-07-16T04:05:17;5.03;;;4.63;;
9997;SDS011;5038;53.064;8.624;2023-07-16T04:07:50;4.57;;;4.17;;
9997;SDS011;5038;53.064;8.624;2023-07-16T04:10:18;5.73;;;4.50;;
9997;SDS011;5038;53.064;8.624;2023-07-16T04:12:47;5.97;;;4.70;;
9997;SDS011;5038;53.064;8.624;2023-07-16T04:15:15;5.03;;;4.40;;
9997;SDS011;5038;53.064;8.624;2023-07-16T04:17:43;9.43;;;5.17;;
9997;SDS011;5038;53.064;8.624;2023-07-16T04:20:13;6.47;;;5.13;;
9997;SDS011;5038;53.064;8.624;2023-07-16T04:22:41;6.83;;;5.93;;
9997;SDS011;5038;53.064;8.624;2023-07-16T04:25:09;6.43;;;4.50;;
9997;SDS011;5038;53.064;8.624;2023-07-16T04:27:37;8.77;;;4.70;;
9997;SDS011;5038;53.064;8.624;2023-07-16T04:30:07;6.40;;;4.80;;
9997;SDS011;5038;53.064;8.624;2023-07-16T04:32:36;8.30;;;5.47;;
9997;SDS011;5038;53.064;8.624;2023-07-16T04:35:04;6.63;;;5.70;;
9997;SDS011;5038;53.064;8.624;2023-07-16T04:37:34;6.93;;;5.07;;
9997;SDS011;5038;53.064;8.624;2023-07-16T04:40:03;9.13;;;5.07;;
9997;SDS011;5038;53.064;8.624;2023-07-16T04:42:32;8.10;;;4.70;;
9997;SDS011;5038;53.064;8.624;2023-07-16T04:45:00;6.53;;;5.43;;
9997;SDS011;5038;53.064;8.624;2023-07-16T04:47:28;6.17;;;5.30;;
9997;SDS011;5038;53.064;8.624;2023-07-16T04:49:57;10.37;;;5.57;;
9997;SDS011;5038;53.064;8.624;2023-07-16T04:52:26;7.07;;;5.30;;
9997;SDS011;5038;53.064;8.624;2023-07-16T04:54:55;4.90;;;4.33;;
9997;SDS011;5038;53.064;8.624;2023-07-16T04:57:23;5.67;;;4.40;;
9997;SDS011;5038;53.064;8.624;2023-07-16T04:59:51;6.80;;;4.37;;
9997;SDS011;5038;53.064;8.624;2023-07-16T05:02:20;5.40;;;4.90;;
9997;SDS011;5038;53.064;8.624;2023-07-16T05:04:48;5.63;;;4.30;;
9997;SDS011;5038;53.064;8.624;2023-07-16T05:07:17;5.93;;;4.57;;
9997;SDS011;5038;53.064;8.624;2023-07-16T05:09:45;8.53;;;4.97;;
9997;SDS011;5038;53.064;8.624;2023-07-16T05:12:14;5.47;;;4.00;;
9997;SDS011;5038;53.064;8.624;2023-07-16T05:14:43;6.33;;;4.60;;
9997;SDS011;5038;53.064;8.624;2023-07-16T05:17:12;6.73;;;5.30;;
9997;SDS011;5038;53.064;8.624;2023-07-16T05:19:40;7.13;;;3.73;;
9997;SDS011;5038;53.064;8.624;2023-07-16T05:22:09;8.43;;;5.20;;
9997;SDS011;5038;53.064;8.624;2023-07-16T05:24:37;14.27;;;5.60;;
9997;SDS011;5038;53.064;8.624;2023-07-16T05:27:05;6.20;;;5.20;;
9997;SDS011;5038;53.064;8.624;2023-07-16T05:29:35;7.00;;;4.70;;
9997;SDS011;5038;53.064;8.624;2023-07-16T05:32:03;9.70;;;5.07;;
9997;SDS011;5038;53.064;8.624;2023-07-16T05:34:32;6.87;;;5.17;;
9997;SDS011;5038;53.064;8.624;2023-07-16T05:37:01;6.60;;;4.57;;
9997;SDS011;5038;53.064;8.624;2023-07-16T05:39:29;8.97;;;4.23;;
9997;SDS011;5038;53.064;8.624;2023-07-16T05:41:57;10.83;;;5.60;;
9997;SDS011;5038;53.064;8.624;2023-07-16T05:44:27;5.70;;;5.20;;
9997;SDS011;5038;53.064;8.624;2023-07-16T05:46:57;7.90;;;4.80;;
9997;SDS011;5038;53.064;8.624;2023-07-16T05:49:25;10.20;;;5.47;;
9997;SDS011;5038;53.064;8.624;2023-07-16T05:51:54;9.40;;;4.80;;
9997;SDS011;5038;53.064;8.624;2023-07-16T05:54:22;8.53;;;4.90;;
9997;SDS011;5038;53.064;8.624;2023-07-16T05:56:50;8.40;;;4.50;;
9997;SDS011;5038;53.064;8.624;2023-07-16T05:59:20;8.40;;;4.70;;
9997;SDS011;5038;53.064;8.624;2023-07-16T06:01:48;8.77;;;4.50;;
9997;SDS011;5038;53.064;8.624;2023-07-16T06:04:18;6.40;;;4.60;;
9997;SDS011;5038;53.064;8.624;2023-07-16T06:06:46;5.83;;;4.23;;
9997;SDS011;5038;53.064;8.624;2023-07-16T06:09:18;6.83;;;4.73;;
9997;SDS011;5038;53.064;8.624;2023-07-16T06:11:46;7.30;;;3.97;;
9997;SDS011;5038;53.064;8.624;2023-07-16T06:14:14;6.63;;;4.33;;
9997;SDS011;5038;53.064;8.624;2023-07-16T06:16:43;6.63;;;3.90;;
9997;SDS011;5038;53.064;8.624;2023-07-16T06:19:12;6.10;;;4.00;;
9997;SDS011;5038;53.064;8.624;2023-07-16T06:21:41;6.33;;;3.40;;
9997;SDS011;5038;53.064;8.624;2023-07-16T06:24:09;6.43;;;3.43;;
9997;SDS011;5038;53.064;8.624;2023-07-16T06:26:42;6.87;;;3.50;;
9997;SDS011;5038;53.064;8.624;2023-07-16T06:29:10;5.17;;;3.10;;
9997;SDS011;5038;53.064;8.624;2023-07-16T06:31:38;4.10;;;3.47;;
9997;SDS011;5038;53.064;8.624;2023-07-16T06:34:09;6.60;;;3.40;;
9997;SDS011;5038;53.064;8.624;2023-07-16T06:36:37;3.67;;;3.00;;
9997;SDS011;5038;53.064;8.624;2023-07-16T06:39:07;7.87;;;3.37;;
9997;SDS011;5038;53.064;8.624;2023-07-16T06:41:35;5.40;;;3.37;;
9997;SDS011;5038;53.064;8.624;2023-07-16T06:44:07;6.47;;;3.00;;
9997;SDS011;5038;53.064;8.624;2023-07-16T06:46:35;5.47;;;2.83;;
9997;SDS011;5038;53.064;8.624;2023-07-16T06:49:04;6.70;;;3.17;;
9997;SDS011;5038;53.064;8.624;2023-07-16T06:51:33;8.80;;;4.27;;
9997;SDS011;5038;53.064;8.624;2023-07-16T06:54:01;5.93;;;3.70;;
9997;SDS011;5038;53.064;8.624;2023-07-16T06:56:30;4.57;;;3.60;;
9997;SDS011;5038;53.064;8.624;2023-07-16T06:58:58;3.83;;;3.53;;
9997;SDS011;5038;53.064;8.624;2023-07-16T07:01:27;4.40;;;3.87;;
9997;SDS011;5038;53.064;8.624;2023-07-16T07:03:55;4.70;;;4.17;;
9997;SDS011;5038;53.064;8.624;2023-07-16T07:06:23;5.50;;;4.40;;
9997;SDS011;5038;53.064;8.624;2023-07-16T07:08:51;9.60;;;5.53;;
9997;SDS011;5038;53.064;8.624;2023-07-16T07:11:19;6.43;;;5.00;;
9997;SDS011;5038;53.064;8.624;2023-07-16T07:13:51;6.27;;;5.67;;
9997;SDS011;5038;53.064;8.624;2023-07-16T07:16:20;6.43;;;5.27;;
9997;SDS011;5038;53.064;8.624;2023-07-16T07:18:48;7.17;;;5.50;;
9997;SDS011;5038;53.064;8.624;2023-07-16T07:21:16;5.87;;;5.27;;
9997;SDS011;5038;53.064;8.624;2023-07-16T07:23:44;7.30;;;6.60;;
9997;SDS011;5038;53.064;8.624;2023-07-16T07:26:12;7.77;;;6.43;;
9997;SDS011;5038;53.064;8.624;2023-07-16T07:28:41;8.60;;;6.47;;
9997;SDS011;5038;53.064;8.624;2023-07-16T07:31:10;6.83;;;6.13;;
9997;SDS011;5038;53.064;8.624;2023-07-16T07:33:39;7.27;;;6.53;;
9997;SDS011;5038;53.064;8.624;2023-07-16T07:36:07;7.73;;;6.20;;
9997;SDS011;5038;53.064;8.624;2023-07-16T07:38:36;8.07;;;6.43;;
9997;SDS011;5038;53.064;8.624;2023-07-16T07:41:04;7.10;;;6.37;;
9997;SDS011;5038;53.064;8.624;2023-07-16T07:43:33;6.80;;;6.20;;
9997;SDS011;5038;53.064;8.624;2023-07-16T07:46:01;8.73;;;6.57;;
9997;SDS011;5038;53.064;8.624;2023-07-16T07:48:30;8.00;;;6.70;;
9997;SDS011;5038;53.064;8.624;2023-07-16T07:50:58;6.80;;;6.10;;
9997;SDS011;5038;53.064;8.624;2023-07-16T07:53:26;8.50;;;5.90;;
9997;SDS011;5038;53.064;8.624;2023-07-16T07:55:55;6.47;;;5.57;;
9997;SDS011;5038;53.064;8.624;2023-07-16T07:58:23;7.07;;;5.60;;
9997;SDS011;5038;53.064;8.624;2023-07-16T08:00:51;9.23;;;6.53;;
9997;SDS011;5038;53.064;8.624;2023-07-16T08:03:19;7.57;;;5.43;;
9997;SDS011;5038;53.064;8.624;2023-07-16T08:05:49;6.30;;;5.20;;
9997;SDS011;5038;53.064;8.624;2023-07-16T08:08:17;6.20;;;4.97;;
9997;SDS011;5038;53.064;8.624;2023-07-16T08:10:45;5.23;;;4.47;;
9997;SDS011;5038;53.064;8.624;2023-07-16T08:13:14;9.00;;;4.87;;
9997;SDS011;5038;53.064;8.624;2023-07-16T08:15:42;8.37;;;4.93;;
9997;SDS011;5038;53.064;8.624;2023-07-16T08:18:10;6.10;;;4.80;;
9997;SDS011;5038;53.064;8.624;2023-07-16T08:20:38;7.27;;;4.80;;
9997;SDS011;5038;53.064;8.624;2023-07-16T08:23:09;6.73;;;4.50;;
9997;SDS011;5038;53.064;8.624;2023-07-16T08:25:38;9.20;;;4.67;;
9997;SDS011;5038;53.064;8.624;2023-07-16T08:28:06;6.00;;;5.00;;
9997;SDS011;5038;53.064;8.624;2023-07-16T08:30:34;5.57;;;4.73;;
9997;SDS011;5038;53.064;8.624;2023-07-16T08:33:02;8.40;;;4.70;;
9997;SDS011;5038;53.064;8.624;2023-07-16T08:35:30;6.60;;;4.83;;
9997;SDS011;5038;53.064;8.624;2023-07-16T08:37:58;5.90;;;4.67;;
9997;SDS011;5038;53.064;8.624;2023-07-16T08:40:28;7.30;;;4.93;;
9997;SDS011;5038;53.064;8.624;2023-07-16T08:42:56;5.13;;;4.53;;
9997;SDS011;5038;53.064;8.624;2023-07-16T08:45:25;6.50;;;5.10;;
9997;SDS011;5038;53.064;8.624;2023-07-16T08:47:56;7.50;;;5.07;;
9997;SDS011;5038;53.064;8.624;2023-07-16T08:50:25;4.23;;;3.80;;
9997;SDS011;5038;53.064;8.624;2023-07-16T08:52:58;7.13;;;4.70;;
9997;SDS011;5038;53.064;8.624;2023-07-16T08:55:28;6.63;;;4.90;;
9997;SDS011;5038;53.064;8.624;2023-07-16T08:57:56;5.70;;;4.93;;
9997;SDS011;5038;53.064;8.624;2023-07-16T09:00:25;9.93;;;4.90;;
9997;SDS011;5038;53.064;8.624;2023-07-16T09:02:54;10.07;;;5.53;;
9997;SDS011;5038;53.064;8.624;2023-07-16T09:05:23;7.90;;;5.03;;
9997;SDS011;5038;53.064;8.624;2023-07-16T09:08:05;9.40;;;6.10;;
9997;SDS011;5038;53.064;8.624;2023-07-16T09:10:35;5.90;;;4.70;;
9997;SDS011;5038;53.064;8.624;2023-07-16T09:13:03;9.40;;;5.70;;
9997;SDS011;5038;53.064;8.624;2023-07-16T09:15:31;9.07;;;5.07;;
9997;SDS011;5038;53.064;8.624;2023-07-16T09:18:00;5.33;;;4.83;;
9997;SDS011;5038;53.064;8.624;2023-07-16T09:20:29;6.53;;;5.87;;
9997;SDS011;5038;53.064;8.624;2023-07-16T09:22:58;6.70;;;4.57;;
9997;SDS011;5038;53.064;8.624;2023-07-16T09:25:27;8.10;;;4.60;;
9997;SDS011;5038;53.064;8.624;2023-07-16T09:27:57;6.00;;;5.07;;
9997;SDS011;5038;53.064;8.624;2023-07-16T09:30:30;8.13;;;5.10;;
9997;SDS011;5038;53.064;8.624;2023-07-16T09:33:03;5.43;;;4.40;;
9997;SDS011;5038;53.064;8.624;2023-07-16T09:35:37;6.77;;;4.77;;
9997;SDS011;5038;53.064;8.624;2023-07-16T09:38:06;7.43;;;4.97;;
9997;SDS011;5038;53.064;8.624;2023-07-16T09:40:35;7.23;;;5.10;;
9997;SDS011;5038;53.064;8.624;2023-07-16T09:43:06;7.67;;;4.93;;
9997;SDS011;5038;53.064;8.624;2023-07-16T09:45:34;4.40;;;4.00;;
9997;SDS011;5038;53.064;8.624;2023-07-16T09:48:03;5.60;;;4.40;;
9997;SDS011;5038;53.064;8.624;2023-07-16T09:50:33;10.90;;;5.00;;
9997;SDS011;5038;53.064;8.624;2023-07-16T09:53:03;9.17;;;4.90;;
9997;SDS011;5038;53.064;8.624;2023-07-16T09:55:34;5.50;;;4.90;;
9997;SDS011;5038;53.064;8.624;2023-07-16T09:58:04;6.00;;;5.27;;
9997;SDS011;5038;53.064;8.624;2023-07-16T10:00:37;6.73;;;5.50;;
9997;SDS011;5038;53.064;8.624;2023-07-16T10:03:06;5.57;;;4.50;;
9997;SDS011;5038;53.064;8.624;2023-07-16T10:05:36;5.90;;;4.13;;
9997;SDS011;5038;53.064;8.624;2023-07-16T10:08:05;4.37;;;3.73;;
9997;SDS011;5038;53.064;8.624;2023-07-16T10:10:43;7.60;;;3.80;;
9997;SDS011;5038;53.064;8.624;2023-07-16T10:13:16;6.83;;;4.40;;
9997;SDS011;5038;53.064;8.624;2023-07-16T10:15:51;9.60;;;3.90;;
9997;SDS011;5038;53.064;8.624;2023-07-16T10:18:24;5.27;;;4.00;;
9997;SDS011;5038;53.064;8.624;2023-07-16T10:20:59;5.30;;;4.00;;
9997;SDS011;5038;53.064;8.624;2023-07-16T10:23:39;5.40;;;3.87;;
9997;SDS011;5038;53.064;8.624;2023-07-16T10:26:09;5.30;;;4.03;;
9997;SDS011;5038;53.064;8.624;2023-07-16T10:28:45;6.57;;;3.90;;
9997;SDS011;5038;53.064;8.624;2023-07-16T10:31:17;6.30;;;3.97;;
9997;SDS011;5038;53.064;8.624;2023-07-16T10:33:55;6.37;;;4.13;;
9997;SDS011;5038;53.064;8.624;2023-07-16T10:36:27;5.03;;;4.37;;
9997;SDS011;5038;53.064;8.624;2023-07-16T10:39:01;6.00;;;3.80;;
9997;SDS011;5038;53.064;8.624;2023-07-16T10:41:30;5.37;;;3.37;;
9997;SDS011;5038;53.064;8.624;2023-07-16T10:44:00;4.63;;;4.13;;
9997;SDS011;5038;53.064;8.624;2023-07-16T10:46:30;12.17;;;4.27;;
9997;SDS011;5038;53.064;8.624;2023-07-16T10:48:59;5.37;;;3.93;;
9997;SDS011;5038;53.064;8.624;2023-07-16T10:51:28;4.23;;;3.80;;
9997;SDS011;5038;53.064;8.624;2023-07-16T10:53:57;12.03;;;4.67;;
9997;SDS011;5038;53.064;8.624;2023-07-16T10:56:25;6.37;;;4.07;;
9997;SDS011;5038;53.064;8.624;2023-07-16T10:58:53;7.93;;;4.43;;
9997;SDS011;5038;53.064;8.624;2023-07-16T11:01:23;7.10;;;4.73;;
9997;SDS011;5038;53.064;8.624;2023-07-16T11:03:51;6.57;;;4.60;;
9997;SDS011;5038;53.064;8.624;2023-07-16T11:06:19;4.10;;;3.43;;
9997;SDS011;5038;53.064;8.624;2023-07-16T11:08:48;6.43;;;4.00;;
9997;SDS011;5038;53.064;8.624;2023-07-16T11:11:26;5.60;;;4.13;;
9997;SDS011;5038;53.064;8.624;2023-07-16T11:13:55;5.40;;;4.10;;
9997;SDS011;5038;53.064;8.624;2023-07-16T11:16:24;6.93;;;3.83;;
9997;SDS011;5038;53.064;8.624;2023-07-16T11:18:53;5.87;;;3.70;;
9997;SDS011;5038;53.064;8.624;2023-07-16T11:21:21;4.60;;;4.10;;
9997;SDS011;5038;53.064;8.624;2023-07-16T11:23:49;5.03;;;4.00;;
9997;SDS011;5038;53.064;8.624;2023-07-16T11:26:17;5.80;;;3.50;;
9997;SDS011;5038;53.064;8.624;2023-07-16T11:28:45;4.90;;;4.10;;
9997;SDS011;5038;53.064;8.624;2023-07-16T11:31:17;9.53;;;4.07;;
9997;SDS011;5038;53.064;8.624;2023-07-16T11:33:51;4.77;;;3.47;;
9997;SDS011;5038;53.064;8.624;2023-07-16T11:36:19;4.80;;;3.70;;
9997;SDS011;5038;53.064;8.624;2023-07-16T11:38:48;5.80;;;3.70;;
9997;SDS011;5038;53.064;8.624;2023-07-16T11:41:19;7.93;;;3.90;;
9997;SDS011;5038;53.064;8.624;2023-07-16T11:43:47;4.83;;;3.40;;
9997;SDS011;5038;53.064;8.624;2023-07-16T11:46:16;6.33;;;3.80;;
9997;SDS011;5038;53.064;8.624;2023-07-16T11:48:45;5.13;;;3.63;;
9997;SDS011;5038;53.064;8.624;2023-07-16T11:51:14;4.33;;;3.60;;
9997;SDS011;5038;53.064;8.624;2023-07-16T11:53:42;5.00;;;3.80;;
9997;SDS011;5038;53.064;8.624;2023-07-16T11:56:10;4.60;;;4.20;;
9997;SDS011;5038;53.064;8.624;2023-07-16T11:58:39;5.13;;;3.73;;
9997;SDS011;5038;53.064;8.624;2023-07-16T12:01:07;4.80;;;3.87;;
9997;SDS011;5038;53.064;8.624;2023-07-16T12:03:35;6.60;;;3.60;;
9997;SDS011;5038;53.064;8.624;2023-07-16T12:06:03;4.73;;;3.10;;
9997;SDS011;5038;53.064;8.624;2023-07-16T12:08:33;4.83;;;3.60;;
9997;SDS011;5038;53.064;8.624;2023-07-16T12:11:01;4.70;;;3.87;;
9997;SDS011;5038;53.064;8.624;2023-07-16T12:13:29;5.03;;;3.60;;
9997;SDS011;5038;53.064;8.624;2023-07-16T12:15:57;6.17;;;3.60;;
9997;SDS011;5038;53.064;8.624;2023-07-16T12:18:25;5.50;;;3.97;;
9997;SDS011;5038;53.064;8.624;2023-07-16T12:20:53;7.90;;;4.33;;
9997;SDS011;5038;53.064;8.624;2023-07-16T12:23:21;5.10;;;4.43;;
9997;SDS011;5038;53.064;8.624;2023-07-16T12:25:51;6.87;;;3.80;;
9997;SDS011;5038;53.064;8.624;2023-07-16T12:28:19;8.43;;;4.53;;
9997;SDS011;5038;53.064;8.624;2023-07-16T12:30:47;6.03;;;3.90;;
9997;SDS011;5038;53.064;8.624;2023-07-16T12:33:15;4.10;;;3.73;;
9997;SDS011;5038;53.064;8.624;2023-07-16T12:35:43;4.83;;;4.33;;
9997;SDS011;5038;53.064;8.624;2023-07-16T12:38:13;6.27;;;3.63;;
9997;SDS011;5038;53.064;8.624;2023-07-16T12:40:41;4.60;;;3.70;;
9997;SDS011;5038;53.064;8.624;2023-07-16T12:43:11;5.33;;;4.00;;
9997;SDS011;5038;53.064;8.624;2023-07-16T12:45:39;4.87;;;4.23;;
9997;SDS011;5038;53.064;8.624;2023-07-16T12:48:07;4.63;;;3.77;;
9997;SDS011;5038;53.064;8.624;2023-07-16T12:50:35;5.03;;;4.00;;
9997;SDS011;5038;53.064;8.624;2023-07-16T12:53:03;4.30;;;3.57;;
9997;SDS011;5038;53.064;8.624;2023-07-16T12:55:31;6.80;;;4.67;;
9997;SDS011;5038;53.064;8.624;2023-07-16T12:58:00;5.50;;;4.03;;
9997;SDS011;5038;53.064;8.624;2023-07-16T13:00:29;5.00;;;3.70;;
9997;SDS011;5038;53.064;8.624;2023-07-16T13:02:57;5.93;;;4.07;;
9997;SDS011;5038;53.064;8.624;2023-07-16T13:05:26;4.90;;;3.47;;
9997;SDS011;5038;53.064;8.624;2023-07-16T13:07:54;5.90;;;4.03;;
9997;SDS011;5038;53.064;8.624;2023-07-16T13:10:22;5.73;;;4.50;;
9997;SDS011;5038;53.064;8.624;2023-07-16T13:12:50;8.30;;;4.00;;
9997;SDS011;5038;53.064;8.624;2023-07-16T13:15:18;9.03;;;4.13;;
9997;SDS011;5038;53.064;8.624;2023-07-16T13:17:48;6.43;;;4.40;;
9997;SDS011;5038;53.064;8.624;2023-07-16T13:20:17;4.97;;;3.70;;
9997;SDS011;5038;53.064;8.624;2023-07-16T13:22:46;4.93;;;3.73;;
9997;SDS011;5038;53.064;8.624;2023-07-16T13:25:15;6.43;;;4.10;;
9997;SDS011;5038;53.064;8.624;2023-07-16T13:27:43;6.60;;;4.70;;
9997;SDS011;5038;53.064;8.624;2023-07-16T13:30:11;6.23;;;4.80;;
9997;SDS011;5038;53.064;8.624;2023-07-16T13:32:40;5.13;;;4.30;;
9997;SDS011;5038;53.064;8.624;2023-07-16T13:35:09;9.13;;;4.00;;
9997;SDS011;5038;53.064;8.624;2023-07-16T13:37:37;7.73;;;4.30;;
9997;SDS011;5038;53.064;8.624;2023-07-16T13:40:06;5.00;;;4.50;;
9997;SDS011;5038;53.064;8.624;2023-07-16T13:42:35;8.80;;;5.20;;
9997;SDS011;5038;53.064;8.624;2023-07-16T13:45:03;5.67;;;5.03;;
9997;SDS011;5038;53.064;8.624;2023-07-16T13:47:32;4.73;;;4.27;;
9997;SDS011;5038;53.064;8.624;2023-07-16T13:50:02;4.43;;;4.00;;
9997;SDS011;5038;53.064;8.624;2023-07-16T13:52:31;4.73;;;4.10;;
9997;SDS011;5038;53.064;8.624;2023-07-16T13:55:00;4.60;;;3.80;;
9997;SDS011;5038;53.064;8.624;2023-07-16T13:57:30;6.20;;;4.40;;
9997;SDS011;5038;53.064;8.624;2023-07-16T13:59:58;5.87;;;4.67;;
9997;SDS011;5038;53.064;8.624;2023-07-16T14:02:30;6.17;;;4.53;;
9997;SDS011;5038;53.064;8.624;2023-07-16T14:04:58;5.17;;;4.67;;
9997;SDS011;5038;53.064;8.624;2023-07-16T14:07:26;5.90;;;4.43;;
9997;SDS011;5038;53.064;8.624;2023-07-16T14:09:56;6.83;;;4.47;;
9997;SDS011;5038;53.064;8.624;2023-07-16T14:12:24;5.47;;;3.70;;
9997;SDS011;5038;53.064;8.624;2023-07-16T14:14:52;4.50;;;3.90;;
9997;SDS011;5038;53.064;8.624;2023-07-16T14:17:20;5.43;;;4.50;;
9997;SDS011;5038;53.064;8.624;2023-07-16T14:19:48;7.80;;;4.43;;
9997;SDS011;5038;53.064;8.624;2023-07-16T14:22:17;5.83;;;4.87;;
9997;SDS011;5038;53.064;8.624;2023-07-16T14:24:45;8.00;;;4.10;;
9997;SDS011;5038;53.064;8.624;2023-07-16T14:27:18;5.17;;;4.13;;
9997;SDS011;5038;53.064;8.624;2023-07-16T14:29:47;4.60;;;4.10;;
9997;SDS011;5038;53.064;8.624;2023-07-16T14:32:31;6.17;;;4.60;;
9997;SDS011;5038;53.064;8.624;2023-07-16T14:35:00;5.23;;;4.60;;
9997;SDS011;5038;53.064;8.624;2023-07-16T14:37:28;4.93;;;4.43;;
9997;SDS011;5038;53.064;8.624;2023-07-16T14:39:56;5.00;;;4.30;;
9997;SDS011;5038;53.064;8.624;2023-07-16T14:42:26;5.23;;;4.50;;
9997;SDS011;5038;53.064;8.624;2023-07-16T14:44:54;5.33;;;4.40;;
9997;SDS011;5038;53.064;8.624;2023-07-16T14:47:22;5.20;;;4.60;;
9997;SDS011;5038;53.064;8.624;2023-07-16T14:49:50;5.90;;;3.80;;
9997;SDS011;5038;53.064;8.624;2023-07-16T14:52:18;6.50;;;4.37;;
9997;SDS011;5038;53.064;8.624;2023-07-16T14:54:47;6.40;;;4.37;;
9997;SDS011;5038;53.064;8.624;2023-07-16T14:57:15;8.27;;;5.20;;
9997;SDS011;5038;53.064;8.624;2023-07-16T14:59:45;7.83;;;4.50;;
9997;SDS011;5038;53.064;8.624;2023-07-16T15:02:13;6.30;;;4.10;;
9997;SDS011;5038;53.064;8.624;2023-07-16T15:04:41;5.90;;;4.10;;
9997;SDS011;5038;53.064;8.624;2023-07-16T15:07:09;5.67;;;4.53;;
9997;SDS011;5038;53.064;8.624;2023-07-16T15:09:37;5.30;;;4.27;;
9997;SDS011;5038;53.064;8.624;2023-07-16T15:12:06;5.40;;;4.63;;
9997;SDS011;5038;53.064;8.624;2023-07-16T15:14:35;6.13;;;4.13;;
9997;SDS011;5038;53.064;8.624;2023-07-16T15:17:05;4.93;;;4.10;;
9997;SDS011;5038;53.064;8.624;2023-07-16T15:19:33;5.87;;;4.77;;
9997;SDS011;5038;53.064;8.624;2023-07-16T15:22:02;6.77;;;4.60;;
9997;SDS011;5038;53.064;8.624;2023-07-16T15:24:32;4.63;;;4.13;;
9997;SDS011;5038;53.064;8.624;2023-07-16T15:27:00;6.73;;;4.70;;
9997;SDS011;5038;53.064;8.624;2023-07-16T15:29:29;7.77;;;4.60;;
9997;SDS011;5038;53.064;8.624;2023-07-16T15:31:57;6.13;;;4.20;;